createdAt,value
2023-02-28T00:03:37.230Z,102466.03
2023-02-28T00:08:39.063Z,102454.94
2023-02-28T00:13:43.404Z,102460.97
2023-02-28T00:18:45.137Z,102450.41
2023-02-28T00:23:47.112Z,102449.81
2023-02-28T00:28:50.139Z,102453.41
2023-02-28T00:33:52.746Z,102451.22
2023-02-28T00:38:56.371Z,102456.31
2023-02-28T00:43:59.400Z,102444.81
2023-02-28T00:49:01.113Z,102451.63
2023-02-28T00:54:02.810Z,102460.31
2023-02-28T00:59:05.977Z,102458.31
2023-02-28T01:04:07.779Z,102452.41
2023-02-28T01:09:11.394Z,102449.63
2023-02-28T01:14:15.025Z,102457.25
2023-02-28T01:19:16.827Z,102452.81
2023-02-28T01:24:18.577Z,102467.63
2023-02-28T01:29:21.802Z,102462.50
2023-02-28T01:34:23.547Z,102452.91
2023-02-28T01:39:26.792Z,102458.09
2023-02-28T01:45:02.763Z,102454.09
2023-02-28T01:50:06.809Z,102449.09
2023-02-28T01:55:09.126Z,102448.66
2023-02-28T02:00:15.473Z,102448.97
2023-02-28T02:05:23.374Z,102446.97
2023-02-28T02:10:28.147Z,102438.53
2023-02-28T02:15:32.457Z,102442.16
2023-02-28T02:20:57.910Z,102425.06
2023-02-28T02:26:06.787Z,102429.03
2023-02-28T02:31:35.556Z,102431.13
2023-02-28T02:36:39.520Z,102433.59
2023-02-28T02:41:44.694Z,102431.22
2023-02-28T02:46:46.512Z,102427.81
2023-02-28T02:51:49.685Z,102439.84
2023-02-28T02:56:51.400Z,102434.22
2023-02-28T03:01:54.713Z,102436.44
2023-02-28T03:06:57.834Z,102439.34
2023-02-28T03:11:59.787Z,102438.63
2023-02-28T03:17:21.571Z,102443.03
2023-02-28T03:22:53.368Z,102435.63
2023-02-28T03:28:00.866Z,102439.81
2023-02-28T03:33:05.911Z,102432.78
2023-02-28T03:38:10.526Z,102444.59
2023-02-28T03:43:14.561Z,102445.72
2023-02-28T03:48:18.101Z,102433.31
2023-02-28T03:53:22.994Z,102433.81
2023-02-28T03:58:27.837Z,102440.75
2023-02-28T04:03:29.857Z,102432.78
2023-02-28T04:08:32.981Z,102441.53
2023-02-28T04:13:34.961Z,102445.63
2023-02-28T04:18:36.643Z,102449.25
2023-02-28T04:23:39.772Z,102448.59
2023-02-28T04:28:41.448Z,102453.59
2023-02-28T04:33:43.421Z,102459.22
2023-02-28T04:38:46.612Z,102454.22
2023-02-28T04:43:48.420Z,102457.53
2023-02-28T04:48:50.266Z,102449.44
2023-02-28T04:53:53.328Z,102452.78
2023-02-28T04:58:55.573Z,102449.44
2023-02-28T05:03:58.287Z,102451.84
2023-02-28T05:09:01.940Z,102458.13
2023-02-28T05:14:05.406Z,102449.41
2023-02-28T05:19:07.140Z,102446.97
2023-02-28T05:24:12.218Z,102448.66
2023-02-28T05:29:13.985Z,102451.00
2023-02-28T05:34:16.615Z,102448.38
2023-02-28T05:39:19.718Z,102462.56
2023-02-28T05:44:21.478Z,102457.69
2023-02-28T05:49:23.216Z,102468.59
2023-02-28T05:54:26.479Z,102469.88
2023-02-28T05:59:28.271Z,102470.75
2023-02-28T06:04:32.100Z,102476.53
2023-02-28T06:09:35.350Z,102472.81
2023-02-28T06:14:37.218Z,102483.19
2023-02-28T06:19:39.721Z,102481.50
2023-02-28T06:24:42.770Z,102489.31
2023-02-28T06:29:44.413Z,102498.66
2023-02-28T06:34:46.161Z,102501.63
2023-02-28T06:39:49.192Z,102499.19
2023-02-28T06:44:50.860Z,102503.72
2023-02-28T06:49:52.653Z,102501.38
2023-02-28T06:55:00.812Z,102503.41
2023-02-28T07:00:04.780Z,102504.91
2023-02-28T07:05:06.862Z,102517.34
2023-02-28T07:10:11.799Z,102511.81
2023-02-28T07:15:13.509Z,102529.41
2023-02-28T07:20:15.192Z,102522.47
2023-02-28T07:25:18.316Z,102532.59
2023-02-28T07:30:20.377Z,102531.34
2023-02-28T07:35:22.140Z,102531.47
2023-02-28T07:40:25.367Z,102534.22
2023-02-28T07:45:27.089Z,102531.41
2023-02-28T07:50:31.626Z,102537.16
2023-02-28T07:55:34.703Z,102520.28
2023-02-28T08:00:36.366Z,102513.44
2023-02-28T08:05:39.693Z,102515.78
2023-02-28T08:10:42.815Z,102524.53
2023-02-28T08:15:46.205Z,102520.22
2023-02-28T08:20:47.863Z,102521.06
2023-02-28T08:25:55.733Z,102527.97
2023-02-28T08:30:57.399Z,102530.88
2023-02-28T08:35:59.109Z,102532.53
2023-02-28T08:41:03.490Z,102526.13
2023-02-28T08:46:05.348Z,102535.34
2023-02-28T08:51:08.837Z,102534.69
2023-02-28T08:56:13.121Z,102535.28
2023-02-28T09:01:16.073Z,102535.56
2023-02-28T09:06:18.587Z,102534.09
2023-02-28T09:11:21.796Z,102536.03
2023-02-28T09:16:23.565Z,102533.06
2023-02-28T09:21:25.294Z,102530.03
2023-02-28T09:26:34.773Z,102533.47
2023-02-28T09:31:44.635Z,102527.28
2023-02-28T09:36:46.989Z,102530.38
2023-02-28T09:41:52.487Z,102519.81
2023-02-28T09:46:56.586Z,102526.41
2023-02-28T09:52:00.029Z,102520.09
2023-02-28T09:57:07.108Z,102525.31
2023-02-28T10:02:17.650Z,102523.34
2023-02-28T10:07:24.239Z,102516.94
2023-02-28T10:12:27.218Z,102521.81
2023-02-28T10:17:31.585Z,102519.34
2023-02-28T10:22:35.098Z,102518.31
2023-02-28T10:27:38.107Z,102527.34
2023-02-28T10:32:39.861Z,102526.78
2023-02-28T10:37:42.348Z,102517.81
2023-02-28T10:42:46.357Z,102525.44
2023-02-28T10:47:54.744Z,102517.66
2023-02-28T10:53:15.618Z,102529.34
2023-02-28T10:58:26.461Z,102541.97
2023-02-28T11:03:32.690Z,102541.97
2023-02-28T11:08:35.305Z,102545.00
2023-02-28T11:13:41.046Z,102540.41
2023-02-28T11:18:44.685Z,102528.66
2023-02-28T11:23:46.368Z,102529.88
2023-02-28T11:28:49.477Z,102528.16
2023-02-28T11:33:51.966Z,102523.72
2023-02-28T11:38:54.377Z,102524.25
2023-02-28T11:44:21.718Z,102523.88
2023-02-28T11:49:32.390Z,102522.84
2023-02-28T11:54:44.056Z,102524.50
2023-02-28T11:59:55.516Z,102520.41
2023-02-28T12:05:09.738Z,102520.91
2023-02-28T12:10:17.049Z,102510.69
2023-02-28T12:15:27.168Z,102498.97
2023-02-28T12:20:33.417Z,102492.69
2023-02-28T12:25:51.363Z,102490.88
2023-02-28T12:30:56.576Z,102479.84
2023-02-28T12:35:59.610Z,102471.97
2023-02-28T12:41:05.254Z,102462.66
2023-02-28T12:46:10.368Z,102454.66
2023-02-28T12:51:12.153Z,102448.16
2023-02-28T12:56:16.450Z,102433.59
2023-02-28T13:01:40.005Z,102425.25
2023-02-28T13:06:47.851Z,102413.81
2023-02-28T13:11:49.857Z,102418.69
2023-02-28T13:16:57.176Z,102413.19
2023-02-28T13:21:59.604Z,102411.50
2023-02-28T13:27:25.506Z,102417.25
2023-02-28T13:32:38.375Z,102414.84
2023-02-28T13:37:43.482Z,102420.13
2023-02-28T13:42:48.229Z,102420.69
2023-02-28T13:47:54.771Z,102426.81
2023-02-28T13:53:15.536Z,102423.78
2023-02-28T13:58:26.647Z,102413.91
2023-02-28T14:03:37.777Z,102403.81
2023-02-28T14:08:39.499Z,102407.84
2023-02-28T14:13:49.325Z,102399.44
2023-02-28T14:19:01.902Z,102409.81
2023-02-28T14:24:29.577Z,102406.88
2023-02-28T14:29:42.927Z,102395.34
2023-02-28T14:34:49.411Z,102404.31
2023-02-28T14:39:51.102Z,102400.31
2023-02-28T14:44:56.171Z,102388.56
2023-02-28T14:49:59.450Z,102390.72
2023-02-28T14:55:02.250Z,102388.19
2023-02-28T15:00:11.364Z,102390.50
2023-02-28T15:05:30.814Z,102387.97
2023-02-28T15:10:32.845Z,102383.50
2023-02-28T15:15:51.734Z,102383.72
2023-02-28T15:21:06.573Z,102377.44
2023-02-28T15:26:08.312Z,102370.94
2023-02-28T15:31:20.425Z,102376.06
2023-02-28T15:36:26.106Z,102385.09
2023-02-28T15:41:29.184Z,102383.09
2023-02-28T15:46:31.030Z,102389.59
2023-02-28T15:51:34.961Z,102394.84
2023-02-28T15:56:39.121Z,102403.03
2023-02-28T16:01:41.190Z,102401.66
2023-02-28T16:06:45.214Z,102401.59
2023-02-28T16:11:47.997Z,102399.28
2023-02-28T16:16:51.165Z,102400.59
2023-02-28T16:21:54.317Z,102396.19
2023-02-28T16:26:56.278Z,102408.16
2023-02-28T16:31:58.028Z,102414.03
2023-02-28T16:37:01.094Z,102406.66
2023-02-28T16:42:02.905Z,102408.38
2023-02-28T16:47:04.923Z,102404.78
2023-02-28T16:52:08.001Z,102410.91
2023-02-28T16:57:16.424Z,102414.59
2023-02-28T17:02:20.269Z,102415.66
2023-02-28T17:07:23.394Z,102413.13
2023-02-28T17:12:25.104Z,102418.34
2023-02-28T17:17:26.985Z,102413.44
2023-02-28T17:22:30.050Z,102419.69
2023-02-28T17:27:31.765Z,102422.19
2023-02-28T17:32:33.499Z,102428.78
2023-02-28T17:37:36.587Z,102430.13
2023-02-28T17:42:38.385Z,102427.59
2023-02-28T17:47:40.218Z,102430.91
2023-02-28T17:52:43.265Z,102430.56
2023-02-28T17:57:44.969Z,102445.47
2023-02-28T18:02:46.682Z,102442.59
2023-02-28T18:07:49.828Z,102447.06
2023-02-28T18:12:52.309Z,102447.25
2023-02-28T18:17:54.034Z,102446.03
2023-02-28T18:22:57.090Z,102459.31
2023-02-28T18:27:59.001Z,102462.72
2023-02-28T18:33:01.435Z,102463.91
2023-02-28T18:38:08.902Z,102452.03
2023-02-28T18:43:10.661Z,102444.06
2023-02-28T18:48:13.297Z,102445.69
2023-02-28T18:53:16.429Z,102438.72
2023-02-28T18:58:18.178Z,102439.31
2023-02-28T19:03:20.248Z,102447.88
2023-02-28T19:08:23.391Z,102436.84
2023-02-28T19:13:25.136Z,102439.63
2023-02-28T19:18:26.818Z,102434.31
2023-02-28T19:23:31.571Z,102425.78
2023-02-28T19:28:33.271Z,102424.97
2023-02-28T19:33:34.974Z,102431.50
2023-02-28T19:38:38.024Z,102435.72
2023-02-28T19:43:39.896Z,102441.72
2023-02-28T19:48:42.800Z,102440.63
2023-02-28T19:53:45.977Z,102440.81
2023-02-28T19:58:47.714Z,102453.63
2023-02-28T20:03:49.646Z,102458.31
2023-02-28T20:08:53.834Z,102459.75
2023-02-28T20:13:56.939Z,102456.53
2023-02-28T20:18:58.721Z,102462.84
2023-02-28T20:24:01.744Z,102470.66
2023-02-28T20:29:03.548Z,102454.88
2023-02-28T20:34:05.272Z,102449.63
2023-02-28T20:39:08.290Z,102452.84
2023-02-28T20:44:11.937Z,102454.44
2023-02-28T20:49:15.676Z,102454.00
2023-02-28T20:54:18.771Z,102459.78
2023-02-28T20:59:22.216Z,102463.38
2023-02-28T21:04:23.914Z,102461.25
2023-02-28T21:09:28.797Z,102460.34
2023-02-28T21:14:32.101Z,102457.34
2023-02-28T21:19:33.832Z,102457.88
2023-02-28T21:24:36.934Z,102455.38
2023-02-28T21:29:38.604Z,102460.44
2023-02-28T21:34:41.454Z,102467.47
2023-02-28T21:39:45.130Z,102461.31
2023-02-28T21:44:47.173Z,102462.31
2023-02-28T21:49:48.892Z,102465.00
2023-02-28T21:54:51.986Z,102469.25
2023-02-28T21:59:53.685Z,102456.81
2023-02-28T22:04:55.378Z,102452.69
2023-02-28T22:09:58.540Z,102453.13
2023-02-28T22:15:00.331Z,102442.84
2023-02-28T22:20:02.048Z,102438.00
2023-02-28T22:25:06.609Z,102442.81
2023-02-28T22:30:09.730Z,102443.69
2023-02-28T22:35:11.425Z,102456.13
2023-02-28T22:40:14.826Z,102463.44
2023-02-28T22:45:16.750Z,102459.63
2023-02-28T22:50:18.667Z,102465.97
2023-02-28T22:55:21.783Z,102457.09
2023-02-28T23:00:23.952Z,102457.38
2023-02-28T23:05:25.768Z,102466.06
2023-02-28T23:10:28.879Z,102463.97
2023-02-28T23:15:30.573Z,102461.19
2023-02-28T23:20:32.271Z,102450.38
2023-02-28T23:25:35.358Z,102459.16
2023-02-28T23:30:38.502Z,102457.16
2023-02-28T23:35:40.222Z,102450.78
2023-02-28T23:40:43.293Z,102452.34
2023-02-28T23:45:46.642Z,102463.59
2023-02-28T23:50:48.404Z,102462.47
2023-02-28T23:55:51.449Z,102474.41
